Latest Weather Observations for Geelong Racecourse

IDV60901

Issued at 10:35 am EDT Saturday 1 November 2014 (issued every 10 minutes, with the page automatically refreshed every 10 minutes)

About weather observations | Map of Melbourne area stations | Latest observations for Melbourne area | Other Formats
Station Details ID: 087184 Name: GEELONG RACECOURSE Lat: -38.17 Lon: 144.38 Height: 12.9 m
Data from the previous 72 hours. | See also: Recent months at Geelong Racecourse
Date/Time
EDT
Tmp

°C
App
Tmp
°C
Dew
Point
°C
Rel
Hum
%
Delta-T

°C
Wind Press
QNH
hPa
Press
MSL
hPa
Rain
since
9 am
mm
Dir
 
Spd
km/h
Gust
km/h
Spd
kts
Gust
kts
01/10:30am 12.0 5.5 8.3 78 1.8 W 32 57 17 31 1005.5 1005.5 0.0
01/10:25am 13.7 7.7 7.2 65 3.2 W 28 57 15 31 1005.3 1005.3 0.0
01/10:00am 15.1 9.0 6.7 57 4.1 W 28 44 15 24 1004.6 1004.6 0.0
01/09:58am 15.2 9.2 7.0 58 4.0 W 28 44 15 24 1004.6 1004.6 0.0
01/09:30am 14.2 11.1 9.0 71 2.6 W 15 24 8 13 1004.3 1004.3 0.0
01/09:00am 12.7 8.3 9.0 78 1.9 W 22 33 12 18 1004.0 1004.0 6.2
01/08:30am 12.3 8.1 11.0 92 0.7 W 24 37 13 20 1003.5 1003.5 6.2
01/08:00am 12.4 8.2 11.1 92 0.7 W 24 35 13 19 1002.9 1002.9 6.2
01/07:30am 13.3 10.1 11.9 91 0.7 W 20 35 11 19 1001.9 1001.9 6.2
01/07:00am 13.3 10.3 12.0 92 0.7 W 19 30 10 16 1001.3 1001.3 6.2
01/06:30am 13.5 10.5 12.4 93 0.6 WNW 20 30 11 16 1000.9 1000.9 6.2
01/06:00am 13.6 11.9 12.5 93 0.6 WNW 13 28 7 15 1000.6 1000.6 6.0
01/05:30am 13.7 12.4 12.6 93 0.6 WNW 11 17 6 9 1000.5 1000.5 4.8
01/05:00am 13.7 11.7 12.6 93 0.6 W 15 24 8 13 999.2 999.2 3.2
01/04:30am 13.8 12.9 12.5 92 0.7 WNW 9 17 5 9 999.4 999.4 2.4
01/04:00am 15.0 12.5 11.2 78 2.0 WNW 15 26 8 14 999.9 999.9 0.0
01/03:30am 15.8 14.4 10.8 72 2.7 WNW 9 15 5 8 999.6 999.6 0.0
01/03:00am 15.7 13.9 10.7 72 2.7 W 11 20 6 11 999.2 999.2 0.0
01/02:30am 15.9 15.1 10.9 72 2.7 WSW 6 7 3 4 999.0 999.0 0.0
01/02:00am 16.2 12.9 10.9 71 2.8 W 19 33 10 18 999.9 999.9 0.0
01/01:30am 16.4 13.0 11.3 72 2.7 W 20 33 11 18 999.3 999.3 0.0
01/01:00am 16.6 13.3 11.7 73 2.7 WSW 20 32 11 17 999.3 999.3 0.0
01/12:30am 17.6 13.5 11.6 68 3.3 WNW 24 37 13 20 999.8 999.8 0.0
01/12:00am 18.8 16.9 10.6 59 4.4 W 11 19 6 10 998.3 998.3 0.0
 
Date/Time
EDT
Tmp

°C
App
Tmp
°C
Dew
Point
°C
Rel
Hum
%
Delta-T

°C
Wind Press
QNH
hPa
Press
MSL
hPa
Rain
since
9 am
mm
Dir
 
Spd
km/h
Gust
km/h
Spd
kts
Gust
kts
31/11:30pm 19.4 16.7 10.4 56 4.8 W 15 24 8 13 999.0 999.0 0.0
31/11:00pm 21.3 14.9 8.6 44 6.7 WSW 32 57 17 31 998.5 998.5 0.0
31/10:57pm 21.5 15.4 8.1 42 7.0 WSW 30 52 16 28 998.0 998.0 0.0
31/10:30pm 22.8 15.6 5.7 33 8.6 W 33 50 18 27 997.6 997.6 0.0
31/10:18pm 24.4 17.0 5.2 29 9.7 W 33 59 18 32 998.1 998.1 0.0
31/10:15pm 24.9 18.5 5.2 28 10.0 W 28 43 15 23 997.8 997.8 0.0
31/10:00pm 26.9 23.0 5.2 25 11.2 W 15 24 8 13 996.6 996.6 0.0
31/09:30pm 27.1 24.2 6.5 27 10.8 N 11 13 6 7 995.9 995.9 0.0
31/09:00pm 27.3 24.2 5.6 25 11.3 N 11 13 6 7 996.1 996.1 0.0
31/08:30pm 28.5 25.2 4.7 22 12.2 N 11 19 6 10 996.5 996.5 0.0
31/08:00pm 28.8 26.2 4.3 21 12.6 N 7 11 4 6 996.7 996.7 0.0
31/07:30pm 30.5 27.8 3.5 18 13.7 N 7 13 4 7 996.9 996.9 0.0
31/07:00pm 31.8 27.4 2.9 16 14.8 N 15 20 8 11 997.2 997.2 0.0
31/06:30pm 32.4 27.2 2.5 15 15.1 NNW 19 32 10 17 997.6 997.6 0.0
31/06:00pm 32.4 25.7 1.5 14 15.5 NNW 26 41 14 22 998.3 998.3 0.0
31/05:45pm 32.7 24.9 1.7 14 15.5 NNW 32 52 17 28 998.5 998.5 0.0
31/05:30pm 33.2 26.6 2.1 14 15.7 NW 26 44 14 24 998.6 998.6 0.0
31/05:00pm 32.8 25.8 1.8 14 15.6 NNW 28 56 15 30 998.8 998.8 0.0
31/04:30pm 31.7 24.7 1.9 15 14.9 NNW 28 46 15 25 999.4 999.4 0.0
31/04:28pm 31.6 24.6 1.8 15 14.8 NNW 28 46 15 25 999.4 999.4 0.0
31/04:00pm 31.2 24.3 2.4 16 14.5 NNW 28 41 15 22 1000.0 1000.0 0.0
31/03:38pm 31.4 24.1 2.6 16 14.5 NNW 30 50 16 27 1000.3 1000.3 0.0
31/03:30pm 31.3 24.4 2.5 16 14.5 NNW 28 44 15 24 1000.5 1000.5 0.0
31/03:00pm 31.4 24.9 2.6 16 14.6 NNW 26 44 14 24 1001.3 1001.3 0.0
31/02:30pm 31.4 26.7 3.4 17 14.3 N 17 28 9 15 1002.0 1002.0 0.0
31/02:00pm 29.5 24.0 4.2 20 13.0 N 22 32 12 17 1002.6 1002.6 0.0
31/01:30pm 29.1 23.3 4.6 21 12.6 N 24 35 13 19 1003.1 1003.1 0.0
31/01:00pm 28.9 23.5 6.3 24 12.0 N 24 37 13 20 1003.6 1003.6 0.0
31/12:30pm 27.3 23.0 7.7 29 10.5 N 20 28 11 15 1004.2 1004.2 0.0
31/12:00pm 24.0 22.2 12.0 47 6.8 NE 13 24 7 13 1005.1 1005.1 0.0
31/11:30am 21.3 18.9 12.7 58 4.9 NE 17 22 9 12 1005.8 1005.8 0.0
31/11:00am 18.7 16.3 12.5 67 3.5 NE 17 28 9 15 1006.7 1006.7 0.0
31/10:30am 17.7 14.9 11.3 66 3.5 NNE 17 20 9 11 1007.5 1007.5 0.0
31/10:00am 16.6 15.3 11.3 71 2.9 N 9 15 5 8 1008.3 1008.3 0.0
31/09:30am 15.0 11.7 11.0 77 2.1 NNE 19 26 10 14 1008.3 1008.3 0.0
31/09:00am 14.6 12.0 10.6 77 2.1 NNE 15 22 8 12 1008.8 1008.8 0.0
31/08:30am 14.1 11.9 10.9 81 1.7 NNE 13 20 7 11 1009.4 1009.4 0.0
31/08:00am 13.9 12.2 11.1 83 1.5 N 11 17 6 9 1009.6 1009.6 0.0
31/07:30am 13.3 12.6 12.0 92 0.7 NNE 7 11 4 6 1009.8 1009.8 0.0
31/07:00am 12.5 11.8 11.4 93 0.6 N 6 9 3 5 1010.3 1010.3 0.0
31/06:30am 11.9 10.8 10.8 93 0.6 N 7 9 4 5 1010.4 1010.4 0.0
31/06:00am 11.5 10.4 10.6 94 0.5 N 7 11 4 6 1010.4 1010.4 0.0
31/05:30am 8.4 7.8 7.3 93 0.5 CALM 0 0 0 0 1010.5 1010.5 0.0
31/05:00am 9.0 8.5 7.9 93 0.5 CALM 0 0 0 0 1010.4 1010.4 0.0
31/04:30am 9.1 8.6 8.0 93 0.5 CALM 0 0 0 0 1010.8 1010.8 0.0
31/04:00am 9.6 9.3 8.5 93 0.5 CALM 0 0 0 0 1010.9 1010.9 0.0
31/03:30am 10.0 9.4 8.9 93 0.5 N 2 4 1 2 1011.2 1011.2 0.0
31/03:00am 10.5 9.3 9.4 93 0.5 NNW 6 6 3 3 1011.5 1011.5 0.0
31/02:30am 10.0 9.0 8.9 93 0.5 WNW 4 4 2 2 1011.9 1011.9 0.0
31/02:00am 10.1 9.1 9.0 93 0.5 NW 4 6 2 3 1012.4 1012.4 0.0
31/01:30am 10.8 10.8 9.7 93 0.6 CALM 0 0 0 0 1013.0 1013.0 0.0
31/01:00am 10.9 10.9 9.8 93 0.6 CALM 0 0 0 0 1013.8 1013.8 0.0
31/12:30am 11.2 11.3 10.1 93 0.6 CALM 0 0 0 0 1013.9 1013.9 0.0
31/12:00am 11.2 11.3 10.1 93 0.6 CALM 0 0 0 0 1014.0 1014.0 0.0
 
Date/Time
EDT
Tmp

°C
App
Tmp
°C
Dew
Point
°C
Rel
Hum
%
Delta-T

°C
Wind Press
QNH
hPa
Press
MSL
hPa
Rain
since
9 am
mm
Dir
 
Spd
km/h
Gust
km/h
Spd
kts
Gust
kts
30/11:30pm 11.3 11.4 10.0 92 0.7 CALM 0 0 0 0 1014.1 1014.1 0.0
30/11:00pm 11.7 11.1 10.4 92 0.7 S 4 4 2 2 1014.3 1014.3 0.0
30/10:30pm 12.3 12.6 10.9 91 0.7 CALM 0 0 0 0 1014.4 1014.4 0.0
30/10:00pm 12.9 12.5 11.1 89 0.9 ESE 4 6 2 3 1014.1 1014.1 0.0
30/09:30pm 13.3 12.5 11.2 87 1.1 SSE 6 7 3 4 1014.1 1014.1 0.0
30/09:00pm 13.6 12.7 10.8 83 1.5 SE 6 9 3 5 1013.8 1013.8 0.0
30/08:30pm 13.9 12.8 10.7 81 1.7 SE 7 9 4 5 1013.7 1013.7 0.0
30/08:00pm 14.3 12.4 10.5 78 2.0 SSE 11 15 6 8 1013.5 1013.5 0.0
30/07:30pm 15.0 12.4 10.6 75 2.3 SSE 15 20 8 11 1013.2 1013.2 0.0
30/07:00pm 15.7 12.6 10.2 70 2.9 S 17 24 9 13 1013.0 1013.0 0.0
30/06:30pm 16.3 12.7 9.9 66 3.4 S 19 28 10 15 1013.1 1013.1 0.0
30/06:00pm 16.7 13.0 10.1 65 3.5 SSE 20 28 11 15 1012.9 1012.9 0.0
30/05:30pm 17.1 13.1 10.5 65 3.5 S 22 28 12 15 1012.9 1012.9 0.0
30/05:00pm 18.1 14.4 10.0 59 4.3 SSE 20 30 11 16 1012.9 1012.9 0.0
30/04:30pm 19.1 15.1 9.0 52 5.3 SSE 20 26 11 14 1012.9 1012.9 0.0
30/04:00pm 22.2 18.9 8.0 40 7.4 SSW 15 24 8 13 1012.8 1012.8 0.0
30/03:30pm 21.7 17.4 6.8 38 7.6 WNW 19 28 10 15 1013.0 1013.0 0.0
30/03:00pm 21.2 16.6 6.3 38 7.5 W 20 32 11 17 1013.1 1013.1 0.0
30/02:30pm 20.6 16.9 6.5 40 7.1 W 15 32 8 17 1013.4 1013.4 0.0
30/02:00pm 21.2 18.8 7.1 40 7.2 W 9 20 5 11 1013.6 1013.6 0.0
30/01:30pm 20.4 16.9 7.1 42 6.8 W 15 24 8 13 1014.0 1014.0 0.0
30/01:00pm 20.0 16.0 6.7 42 6.7 WNW 17 32 9 17 1014.3 1014.3 0.0
30/12:30pm 19.4 15.1 6.8 44 6.3 WSW 19 24 10 13 1014.6 1014.6 0.0
30/12:00pm 18.9 15.3 6.7 45 6.1 W 15 33 8 18 1014.8 1014.8 0.0
30/11:30am 17.5 14.3 6.7 49 5.4 W 13 20 7 11 1015.0 1015.0 0.0
30/11:00am 17.1 13.2 6.9 51 5.1 W 17 30 9 16 1015.5 1015.5 0.0
30/10:30am 16.5 12.9 6.6 52 4.9 WNW 15 24 8 13 1015.5 1015.5 0.0
30/10:00am 16.4 12.6 7.6 56 4.4 W 17 26 9 14 1015.9 1015.9 0.0
30/09:30am 15.2 12.7 8.0 62 3.6 WNW 11 20 6 11 1015.8 1015.8 0.0
30/09:00am 14.4 12.0 8.6 68 2.9 WNW 11 17 6 9 1015.8 1015.8 0.0
30/08:30am 13.4 11.6 9.6 78 1.9 NW 9 13 5 7 1015.7 1015.7 0.0
30/08:00am 12.9 12.0 10.8 87 1.1 WNW 6 11 3 6 1015.5 1015.5 0.0
30/07:30am 11.9 11.0 10.6 92 0.7 W 6 7 3 4 1015.8 1015.8 0.0
30/07:00am 11.4 10.1 10.1 92 0.7 NW 7 9 4 5 1015.0 1015.0 0.0
30/06:30am 11.8 9.9 10.5 92 0.7 WNW 11 15 6 8 1014.8 1014.8 0.0
30/06:00am 11.8 10.9 10.5 92 0.7 WNW 6 11 3 6 1014.4 1014.4 0.0
30/05:30am 12.0 10.5 10.4 90 0.8 WNW 9 13 5 7 1014.3 1014.3 0.0
30/05:00am 12.7 11.7 10.9 89 0.9 WNW 7 11 4 6 1014.6 1014.6 0.0
30/04:30am 12.7 12.0 11.4 92 0.7 NW 6 9 3 5 1014.6 1014.6 0.0
30/04:00am 12.8 12.0 10.9 88 1.0 WNW 6 9 3 5 1014.5 1014.5 0.0
30/03:30am 13.0 12.0 10.9 87 1.1 NW 7 9 4 5 1014.4 1014.4 0.0
30/03:00am 13.1 12.2 10.6 85 1.3 NW 6 9 3 5 1014.4 1014.4 0.0
30/02:30am 13.6 12.2 10.8 83 1.5 NW 9 13 5 7 1014.9 1014.9 0.0
30/02:00am 13.5 12.5 10.9 84 1.4 NW 7 13 4 7 1015.0 1015.0 0.0
30/01:30am 13.6 12.2 11.0 84 1.4 NNW 9 13 5 7 1015.4 1015.4 0.0
30/01:00am 13.3 11.9 10.8 85 1.3 NW 9 15 5 8 1015.8 1015.8 0.0
30/12:30am 13.2 11.4 10.9 86 1.2 WNW 11 17 6 9 1016.2 1016.2 0.0
30/12:00am 13.1 11.3 11.0 87 1.1 NW 11 15 6 8 1016.3 1016.3 0.0
 
Date/Time
EDT
Tmp

°C
App
Tmp
°C
Dew
Point
°C
Rel
Hum
%
Delta-T

°C
Wind Press
QNH
hPa
Press
MSL
hPa
Rain
since
9 am
mm
Dir
 
Spd
km/h
Gust
km/h
Spd
kts
Gust
kts
29/11:30pm 12.9 11.9 11.1 89 0.9 NW 7 11 4 6 1016.4 1016.4 0.0
29/11:00pm 13.1 12.9 11.8 92 0.7 NNW 4 7 2 4 1016.3 1016.3 0.0
29/10:30pm 13.0 12.8 11.7 92 0.7 NNW 4 7 2 4 1016.7 1016.7 0.0
29/10:00pm 12.9 13.4 11.6 92 0.7 CALM 0 0 0 0 1016.5 1016.5 0.0
29/09:30pm 13.1 12.9 11.8 92 0.7 S 4 4 2 2 1016.4 1016.4 0.0
29/09:00pm 13.8 13.4 12.4 91 0.8 SSE 6 9 3 5 1016.1 1016.1 0.0
29/08:30pm 14.1 13.5 12.3 89 1.0 S 7 9 4 5 1015.9 1015.9 0.0
29/08:00pm 14.7 13.2 12.0 84 1.5 S 11 17 6 9 1015.7 1015.7 0.0
29/07:30pm 15.3 13.2 11.3 77 2.1 SSE 13 19 7 10 1015.3 1015.3 0.0
29/07:00pm 16.1 12.9 11.1 72 2.7 SSE 19 26 10 14 1014.9 1014.9 0.0
29/06:30pm 16.7 13.1 10.5 67 3.3 SSE 20 28 11 15 1014.7 1014.7 0.0
29/06:00pm 17.8 14.2 10.7 63 3.8 SSE 20 30 11 16 1014.5 1014.5 0.0
29/05:30pm 21.6 17.8 9.2 45 6.6 WSW 19 28 10 15 1014.3 1014.3 0.0
29/05:00pm 22.0 18.1 8.5 42 7.1 WSW 19 24 10 13 1014.3 1014.3 0.0
29/04:30pm 22.1 18.8 7.9 40 7.4 WSW 15 22 8 12 1014.2 1014.2 0.0
29/04:00pm 22.4 19.0 7.8 39 7.6 W 15 28 8 15 1014.4 1014.4 0.0
29/03:30pm 22.0 19.4 7.8 40 7.4 NW 11 22 6 12 1014.7 1014.7 0.0
29/03:00pm 21.0 17.6 7.6 42 6.9 WNW 15 20 8 11 1015.2 1015.2 0.0
29/02:30pm 20.7 16.6 7.7 43 6.7 NNW 19 26 10 14 1015.8 1015.8 0.0
29/02:00pm 19.7 15.8 7.1 44 6.4 NW 17 24 9 13 1016.2 1016.2 0.0
29/01:30pm 19.9 15.4 7.0 43 6.5 NNW 20 26 11 14 1016.5 1016.5 0.0
29/01:00pm 19.1 14.8 6.9 45 6.1 W 19 37 10 20 1017.0 1017.0 0.0
29/12:30pm 18.2 13.9 7.0 48 5.6 WNW 19 30 10 16 1017.4 1017.4 0.0
29/12:00pm 17.2 12.8 6.7 50 5.2 NW 19 28 10 15 1017.9 1017.9 0.0
29/11:30am 16.3 12.0 7.0 54 4.6 WNW 19 28 10 15 1018.2 1018.2 0.0
29/11:00am 15.5 11.9 6.8 56 4.3 NW 15 22 8 12 1018.3 1018.3 0.0

Latest Capital City Observations: Canberra | Sydney | Melbourne | Brisbane | Adelaide | Perth | Hobart | Darwin

Other Formats:

Comma delimited format used in spreadsheet applications
http://www.bom.gov.au/fwo/IDV60901/IDV60901.94857.axf

JavaScript Object Notation format (JSON) in row-major order
http://www.bom.gov.au/fwo/IDV60901/IDV60901.94857.json